Аэропорт: Черновцы. Черновцы

ICAO: UKLN

METAR:
Информация по данной станции не доступна
METAR:
2021-04-21 17:06:00
TAF UKLN 211706Z 2118/2203 24004MPS 9999 BKN033 TEMPO 2118/2120 VRB01MPS